createdAt,value
2023-05-01T00:01:15.486Z,3.43
2023-05-01T00:03:42.804Z,3.36
2023-05-01T00:06:11.135Z,3.10
2023-05-01T00:08:39.839Z,3.14
2023-05-01T00:11:11.585Z,3.13
2023-05-01T00:13:40.966Z,3.07
2023-05-01T00:16:14.168Z,3.04
2023-05-01T00:18:42.384Z,2.91
2023-05-01T00:21:09.982Z,2.95
2023-05-01T00:23:37.447Z,3.00
2023-05-01T00:26:04.985Z,2.84
2023-05-01T00:28:32.946Z,2.45
2023-05-01T00:31:00.349Z,2.19
2023-05-01T00:33:27.969Z,1.90
2023-05-01T00:35:56.459Z,1.72
2023-05-01T00:38:24.642Z,2.00
2023-05-01T00:40:51.975Z,2.28
2023-05-01T00:43:19.260Z,2.39
2023-05-01T00:45:47.544Z,2.57
2023-05-01T00:48:16.739Z,2.41
2023-05-01T00:50:48.098Z,2.30
2023-05-01T00:53:16.945Z,2.25
2023-05-01T00:55:45.593Z,2.37
2023-05-01T00:58:13.507Z,2.31
2023-05-01T01:00:43.202Z,2.31
2023-05-01T01:03:10.827Z,2.14
2023-05-01T01:05:43.658Z,2.22
2023-05-01T01:08:22.498Z,1.97
2023-05-01T01:11:42.808Z,2.09
2023-05-01T01:14:34.671Z,2.03
2023-05-01T01:17:12.348Z,1.80
2023-05-01T01:20:17.585Z,1.59
2023-05-01T01:22:49.525Z,1.56
2023-05-01T01:25:50.800Z,1.51
2023-05-01T01:28:46.894Z,1.37
2023-05-01T01:31:47.737Z,1.18
2023-05-01T01:34:40.498Z,1.15
2023-05-01T01:37:44.081Z,0.94
2023-05-01T01:40:24.390Z,0.92
2023-05-01T01:43:05.867Z,1.00
2023-05-01T01:45:47.620Z,1.06
2023-05-01T01:48:23.059Z,1.26
2023-05-01T01:50:59.691Z,1.36
2023-05-01T01:53:37.901Z,1.46
2023-05-01T01:56:08.079Z,1.29
2023-05-01T01:58:37.295Z,1.08
2023-05-01T02:01:07.382Z,1.31
2023-05-01T02:03:35.270Z,1.36
2023-05-01T02:06:05.690Z,1.41
2023-05-01T02:08:36.833Z,1.49
2023-05-01T02:11:05.503Z,1.51
2023-05-01T02:13:34.314Z,1.60
2023-05-01T02:16:04.385Z,1.62
2023-05-01T02:18:38.904Z,1.57
2023-05-01T02:21:07.358Z,1.32
2023-05-01T02:23:35.025Z,1.30
2023-05-01T02:26:04.607Z,1.06
2023-05-01T02:28:34.544Z,0.91
2023-05-01T02:31:01.901Z,0.93
2023-05-01T02:33:29.225Z,1.20
2023-05-01T02:35:56.776Z,1.30
2023-05-01T02:38:30.689Z,1.41
2023-05-01T02:40:58.908Z,1.34
2023-05-01T02:43:29.138Z,1.37
2023-05-01T02:45:59.423Z,1.27
2023-05-01T02:48:31.106Z,1.30
2023-05-01T02:50:59.184Z,1.13
2023-05-01T02:53:26.312Z,1.01
2023-05-01T02:55:55.368Z,1.17
2023-05-01T02:58:33.061Z,1.33
2023-05-01T03:01:00.750Z,1.39
2023-05-01T03:03:30.622Z,1.30
2023-05-01T03:05:58.963Z,1.08
2023-05-01T03:08:26.585Z,1.11
2023-05-01T03:10:55.031Z,1.09
2023-05-01T03:13:23.036Z,1.13
2023-05-01T03:15:50.385Z,1.16
2023-05-01T03:18:24.236Z,1.18
2023-05-01T03:20:55.449Z,0.85
2023-05-01T03:23:24.057Z,0.57
2023-05-01T03:25:51.858Z,0.44
2023-05-01T03:28:19.477Z,0.33
2023-05-01T03:30:50.141Z,0.28
2023-05-01T03:33:17.431Z,0.50
2023-05-01T03:35:44.891Z,0.68
2023-05-01T03:38:12.337Z,0.81
2023-05-01T03:40:39.778Z,0.88
2023-05-01T03:43:07.662Z,0.57
2023-05-01T03:45:35.299Z,0.58
2023-05-01T03:48:02.919Z,0.80
2023-05-01T03:50:30.101Z,0.56
2023-05-01T03:52:57.980Z,0.51
2023-05-01T03:55:26.204Z,0.38
2023-05-01T03:57:53.645Z,0.37
2023-05-01T04:00:21.186Z,0.66
2023-05-01T04:02:50.784Z,0.67
2023-05-01T04:05:18.917Z,0.78
2023-05-01T04:07:46.173Z,0.78
2023-05-01T04:10:13.673Z,0.70
2023-05-01T04:12:41.979Z,0.68
2023-05-01T04:15:10.945Z,0.88
2023-05-01T04:17:38.643Z,1.07
2023-05-01T04:20:06.910Z,1.09
2023-05-01T04:22:34.288Z,0.87
2023-05-01T04:25:01.942Z,0.91
2023-05-01T04:27:29.968Z,0.88
2023-05-01T04:30:03.019Z,0.83
2023-05-01T04:32:31.609Z,0.86
2023-05-01T04:35:06.406Z,0.91
2023-05-01T04:37:35.890Z,0.82
2023-05-01T04:40:03.676Z,0.93
2023-05-01T04:42:33.943Z,1.12
2023-05-01T04:45:04.388Z,1.24
2023-05-01T04:47:33.057Z,1.37
2023-05-01T04:50:00.532Z,1.67
2023-05-01T04:52:27.943Z,1.89
2023-05-01T04:54:55.384Z,2.07
2023-05-01T04:57:22.791Z,2.25
2023-05-01T04:59:50.297Z,2.47
2023-05-01T05:02:17.728Z,2.77
2023-05-01T05:04:45.149Z,2.88
2023-05-01T05:07:13.308Z,3.03
2023-05-01T05:09:41.750Z,3.18
2023-05-01T05:12:09.787Z,3.41
2023-05-01T05:14:37.178Z,3.59
2023-05-01T05:17:04.656Z,3.79
2023-05-01T05:19:32.066Z,3.95
2023-05-01T05:21:59.554Z,4.11
2023-05-01T05:24:27.033Z,4.29
2023-05-01T05:26:55.280Z,4.49
2023-05-01T05:29:23.170Z,4.73
2023-05-01T05:31:50.367Z,4.93
2023-05-01T05:34:19.909Z,5.22
2023-05-01T05:36:47.452Z,5.39
2023-05-01T05:39:14.955Z,5.62
2023-05-01T05:41:44.384Z,5.80
2023-05-01T05:44:11.900Z,6.02
2023-05-01T05:46:40.522Z,6.34
2023-05-01T05:49:07.773Z,6.59
2023-05-01T05:51:35.238Z,6.90
2023-05-01T05:54:02.778Z,7.35
2023-05-01T05:56:30.227Z,7.59
2023-05-01T05:58:57.656Z,7.87
2023-05-01T06:01:25.217Z,8.04
2023-05-01T06:03:52.372Z,8.22
2023-05-01T06:06:19.893Z,8.37
2023-05-01T06:08:47.440Z,8.56
2023-05-01T06:11:14.857Z,8.80
2023-05-01T06:13:42.620Z,8.88
2023-05-01T06:16:09.972Z,9.02
2023-05-01T06:18:43.389Z,9.05
2023-05-01T06:21:12.381Z,9.14
2023-05-01T06:23:40.356Z,9.20
2023-05-01T06:26:10.429Z,9.30
2023-05-01T06:28:38.022Z,9.32
2023-05-01T06:31:05.935Z,9.53
2023-05-01T06:33:39.389Z,9.71
2023-05-01T06:36:07.075Z,9.88
2023-05-01T06:38:35.424Z,9.98
2023-05-01T06:41:02.865Z,10.06
2023-05-01T06:43:32.815Z,10.11
2023-05-01T06:46:00.491Z,10.09
2023-05-01T06:48:29.106Z,10.10
2023-05-01T06:50:56.729Z,10.19
2023-05-01T06:53:24.357Z,10.29
2023-05-01T06:55:52.760Z,10.37
2023-05-01T06:58:23.966Z,10.37
2023-05-01T07:00:53.010Z,10.48
2023-05-01T07:03:20.239Z,10.72
2023-05-01T07:05:47.770Z,10.79
2023-05-01T07:08:15.194Z,10.96
2023-05-01T07:10:44.730Z,11.10
2023-05-01T07:13:12.200Z,11.15
2023-05-01T07:15:39.575Z,11.35
2023-05-01T07:18:07.297Z,11.48
2023-05-01T07:20:36.994Z,11.42
2023-05-01T07:23:07.274Z,11.45
2023-05-01T07:25:41.696Z,11.62
2023-05-01T07:28:09.246Z,11.74
2023-05-01T07:30:37.886Z,11.70
2023-05-01T07:33:06.219Z,11.80
2023-05-01T07:35:33.844Z,11.95
2023-05-01T07:38:01.361Z,12.04
2023-05-01T07:40:28.856Z,12.16
2023-05-01T07:42:56.215Z,12.33
2023-05-01T07:45:24.762Z,12.18
2023-05-01T07:47:52.711Z,12.33
2023-05-01T07:50:23.076Z,12.62
2023-05-01T07:52:50.759Z,12.82
2023-05-01T07:55:19.599Z,12.95
2023-05-01T07:57:47.129Z,13.08
2023-05-01T08:00:15.177Z,12.98
2023-05-01T08:02:42.999Z,12.72
2023-05-01T08:05:11.719Z,12.76
2023-05-01T08:07:38.968Z,12.75
2023-05-01T08:10:06.961Z,12.90
2023-05-01T08:12:34.508Z,13.04
2023-05-01T08:15:02.039Z,12.98
2023-05-01T08:17:30.470Z,13.01
2023-05-01T08:19:58.193Z,13.19
2023-05-01T08:22:25.768Z,13.44
2023-05-01T08:24:53.273Z,13.69
2023-05-01T08:27:20.911Z,13.66
2023-05-01T08:29:48.382Z,13.77
2023-05-01T08:32:19.690Z,13.89
2023-05-01T08:34:47.353Z,14.10
2023-05-01T08:37:16.022Z,14.11
2023-05-01T08:39:43.596Z,14.27
2023-05-01T08:42:11.560Z,14.51
2023-05-01T08:44:42.585Z,14.70
2023-05-01T08:47:12.961Z,14.81
2023-05-01T08:49:43.597Z,15.05
2023-05-01T08:52:14.449Z,15.15
2023-05-01T08:54:47.509Z,15.30
2023-05-01T08:57:16.298Z,14.82
2023-05-01T08:59:45.396Z,14.55
2023-05-01T09:02:26.041Z,14.90
2023-05-01T09:04:54.613Z,15.31
2023-05-01T09:07:24.537Z,15.72
2023-05-01T09:09:52.119Z,15.91
2023-05-01T09:12:29.947Z,15.96
2023-05-01T09:15:04.494Z,16.06
2023-05-01T09:17:32.810Z,16.23
2023-05-01T09:20:05.052Z,16.48
2023-05-01T09:22:35.782Z,16.73
2023-05-01T09:25:07.165Z,16.83
2023-05-01T09:27:36.179Z,16.84
2023-05-01T09:30:04.150Z,16.89
2023-05-01T09:32:31.596Z,17.06
2023-05-01T09:35:15.721Z,17.32
2023-05-01T09:37:44.833Z,17.34
2023-05-01T09:40:15.200Z,17.53
2023-05-01T09:42:53.276Z,17.80
2023-05-01T09:45:23.929Z,18.05
2023-05-01T09:47:52.827Z,18.27
2023-05-01T09:50:34.802Z,17.85
2023-05-01T09:53:05.075Z,17.96
2023-05-01T09:55:38.446Z,18.22
2023-05-01T09:58:06.899Z,18.21
2023-05-01T10:00:48.786Z,18.53
2023-05-01T10:03:16.171Z,18.74
2023-05-01T10:05:44.858Z,19.07
2023-05-01T10:08:16.321Z,19.32
2023-05-01T10:11:01.155Z,19.50
2023-05-01T10:13:28.948Z,18.70
2023-05-01T10:15:56.200Z,18.84
2023-05-01T10:18:24.459Z,18.84
2023-05-01T10:20:52.352Z,18.68
2023-05-01T10:23:26.356Z,17.84
2023-05-01T10:25:54.322Z,17.26
2023-05-01T10:28:22.267Z,17.74
2023-05-01T10:30:50.557Z,18.06
2023-05-01T10:33:18.859Z,18.71
2023-05-01T10:35:55.778Z,19.35
2023-05-01T10:38:28.215Z,19.56
2023-05-01T10:41:01.618Z,19.85
2023-05-01T10:43:32.619Z,20.02
2023-05-01T10:46:19.595Z,20.28
2023-05-01T10:48:47.058Z,19.67
2023-05-01T10:51:20.838Z,19.84
2023-05-01T10:53:49.061Z,20.49
2023-05-01T10:56:25.965Z,20.81
2023-05-01T10:58:54.416Z,21.13
2023-05-01T11:01:54.181Z,21.01
2023-05-01T11:04:24.965Z,20.36
2023-05-01T11:06:58.739Z,20.85
2023-05-01T11:09:41.572Z,20.31
2023-05-01T11:12:11.521Z,20.57
2023-05-01T11:15:08.413Z,19.82
2023-05-01T11:17:42.827Z,20.29
2023-05-01T11:20:26.616Z,21.09
2023-05-01T11:22:56.148Z,21.60
2023-05-01T11:25:28.106Z,21.36
2023-05-01T11:27:59.761Z,20.47
2023-05-01T11:30:27.388Z,21.22
2023-05-01T11:32:54.982Z,21.78
2023-05-01T11:35:24.625Z,21.58
2023-05-01T11:37:52.566Z,21.41
2023-05-01T11:40:22.162Z,22.03
2023-05-01T11:42:50.787Z,22.85
2023-05-01T11:45:20.470Z,22.05
2023-05-01T11:47:49.214Z,22.47
2023-05-01T11:50:17.486Z,22.25
2023-05-01T11:52:50.309Z,22.53
2023-05-01T11:55:18.085Z,23.10
2023-05-01T11:57:54.082Z,23.43
2023-05-01T12:00:37.143Z,23.41
2023-05-01T12:03:15.560Z,22.02
2023-05-01T12:05:46.867Z,21.68
2023-05-01T12:08:23.621Z,21.60
2023-05-01T12:10:59.017Z,22.33
2023-05-01T12:13:29.832Z,21.82
2023-05-01T12:15:57.668Z,21.53
2023-05-01T12:18:25.446Z,21.85
2023-05-01T12:20:54.951Z,20.82
2023-05-01T12:23:37.746Z,20.68
2023-05-01T12:26:26.719Z,21.11
2023-05-01T12:28:54.964Z,20.60
2023-05-01T12:31:26.603Z,20.55
2023-05-01T12:34:00.626Z,21.81
2023-05-01T12:36:36.835Z,21.76
2023-05-01T12:39:06.719Z,22.99
2023-05-01T12:41:47.472Z,21.81
2023-05-01T12:44:31.046Z,21.40
2023-05-01T12:47:06.985Z,21.03
2023-05-01T12:49:38.481Z,22.10
2023-05-01T12:52:08.261Z,22.74
2023-05-01T12:54:39.765Z,22.73
2023-05-01T12:57:07.069Z,22.30
2023-05-01T12:59:36.753Z,22.40
2023-05-01T13:02:07.878Z,22.62
2023-05-01T13:04:36.835Z,23.16
2023-05-01T13:07:19.835Z,22.90
2023-05-01T13:09:56.001Z,22.71
2023-05-01T13:12:32.463Z,22.15
2023-05-01T13:15:07.297Z,21.97
2023-05-01T13:17:35.001Z,22.50
2023-05-01T13:20:05.361Z,23.00
2023-05-01T13:22:38.087Z,22.80
2023-05-01T13:25:19.330Z,22.46
2023-05-01T13:27:53.634Z,22.60
2023-05-01T13:30:31.876Z,22.60
2023-05-01T13:32:59.643Z,22.91
2023-05-01T13:35:28.476Z,23.91
2023-05-01T13:37:57.311Z,24.52
2023-05-01T13:40:26.790Z,23.36
2023-05-01T13:42:54.466Z,23.55
2023-05-01T13:45:22.056Z,23.67
2023-05-01T13:47:52.256Z,23.60
2023-05-01T13:50:20.033Z,22.51
2023-05-01T13:52:48.867Z,22.39
2023-05-01T13:55:18.034Z,22.92
2023-05-01T13:57:45.384Z,24.49
2023-05-01T14:00:19.691Z,25.46
2023-05-01T14:02:54.357Z,24.64
2023-05-01T14:05:28.651Z,24.44
2023-05-01T14:07:58.716Z,24.96
2023-05-01T14:10:29.046Z,23.66
2023-05-01T14:13:00.142Z,23.33
2023-05-01T14:15:29.888Z,22.88
2023-05-01T14:18:01.423Z,23.62
2023-05-01T14:20:28.689Z,23.11
2023-05-01T14:22:56.520Z,22.59
2023-05-01T14:25:33.435Z,22.56
2023-05-01T14:28:08.266Z,22.85
2023-05-01T14:30:39.676Z,22.91
2023-05-01T14:33:16.487Z,23.54
2023-05-01T14:35:54.161Z,24.22
2023-05-01T14:38:26.133Z,24.56
2023-05-01T14:40:53.572Z,24.69
2023-05-01T14:43:23.028Z,23.28
2023-05-01T14:45:50.589Z,23.15
2023-05-01T14:48:24.065Z,23.15
2023-05-01T14:50:52.334Z,22.55
2023-05-01T14:53:28.019Z,23.14
2023-05-01T14:55:55.631Z,23.82
2023-05-01T14:58:24.303Z,23.55
2023-05-01T15:00:51.594Z,23.29
2023-05-01T15:03:18.812Z,23.43
2023-05-01T15:05:46.947Z,22.38
2023-05-01T15:08:15.363Z,22.61
2023-05-01T15:10:43.924Z,23.13
2023-05-01T15:13:11.314Z,22.61
2023-05-01T15:15:38.930Z,22.71
2023-05-01T15:18:07.748Z,22.33
2023-05-01T15:20:36.320Z,22.51
2023-05-01T15:23:03.792Z,22.71
2023-05-01T15:25:31.233Z,23.11
2023-05-01T15:27:58.671Z,23.22
2023-05-01T15:30:26.155Z,22.92
2023-05-01T15:32:56.685Z,23.04
2023-05-01T15:35:24.466Z,23.49
2023-05-01T15:37:51.834Z,23.75
2023-05-01T15:40:25.319Z,24.02
2023-05-01T15:42:53.751Z,24.11
2023-05-01T15:45:21.457Z,24.08
2023-05-01T15:47:51.483Z,24.14
2023-05-01T15:50:18.615Z,24.12
2023-05-01T15:52:46.458Z,23.61
2023-05-01T15:55:14.074Z,24.13
2023-05-01T15:57:41.989Z,24.13
2023-05-01T16:00:17.209Z,24.35
2023-05-01T16:02:45.216Z,24.15
2023-05-01T16:05:17.076Z,23.45
2023-05-01T16:07:46.613Z,22.63
2023-05-01T16:10:14.182Z,22.16
2023-05-01T16:12:41.623Z,21.77
2023-05-01T16:15:09.825Z,21.84
2023-05-01T16:17:44.248Z,21.99
2023-05-01T16:20:14.659Z,22.32
2023-05-01T16:22:43.618Z,22.51
2023-05-01T16:25:11.338Z,22.91
2023-05-01T16:27:46.707Z,23.36
2023-05-01T16:30:15.185Z,23.45
2023-05-01T16:32:43.559Z,23.34
2023-05-01T16:35:27.161Z,22.88
2023-05-01T16:37:55.876Z,22.54
2023-05-01T16:40:29.651Z,22.78
2023-05-01T16:43:01.188Z,22.56
2023-05-01T16:45:29.394Z,22.38
2023-05-01T16:48:09.195Z,21.72
2023-05-01T16:50:41.840Z,21.45
2023-05-01T16:53:16.598Z,21.27
2023-05-01T16:55:44.505Z,21.09
2023-05-01T16:58:12.471Z,21.09
2023-05-01T17:00:40.376Z,21.09
2023-05-01T17:03:15.558Z,21.07
2023-05-01T17:05:43.347Z,21.26
2023-05-01T17:08:13.785Z,21.19
2023-05-01T17:10:41.317Z,21.09
2023-05-01T17:13:09.602Z,20.84
2023-05-01T17:15:37.555Z,21.00
2023-05-01T17:18:06.091Z,20.94
2023-05-01T17:20:33.588Z,20.83
2023-05-01T17:23:01.188Z,20.90
2023-05-01T17:25:30.825Z,21.02
2023-05-01T17:27:59.608Z,20.76
2023-05-01T17:30:29.265Z,20.78
2023-05-01T17:32:57.634Z,20.90
2023-05-01T17:35:27.106Z,20.80
2023-05-01T17:37:54.506Z,20.60
2023-05-01T17:40:22.152Z,20.49
2023-05-01T17:42:49.803Z,20.43
2023-05-01T17:45:24.019Z,20.29
2023-05-01T17:47:54.870Z,20.12
2023-05-01T17:50:25.186Z,20.11
2023-05-01T17:52:52.946Z,19.87
2023-05-01T17:55:33.681Z,19.74
2023-05-01T17:58:01.227Z,19.79
2023-05-01T18:00:31.796Z,19.60
2023-05-01T18:02:59.562Z,19.55
2023-05-01T18:05:27.550Z,19.35
2023-05-01T18:07:55.302Z,19.35
2023-05-01T18:10:23.548Z,19.30
2023-05-01T18:12:51.458Z,19.12
2023-05-01T18:15:22.971Z,19.10
2023-05-01T18:17:52.387Z,18.99
2023-05-01T18:20:20.040Z,18.99
2023-05-01T18:22:47.187Z,19.08
2023-05-01T18:25:16.208Z,18.98
2023-05-01T18:27:46.685Z,19.02
2023-05-01T18:30:20.590Z,18.99
2023-05-01T18:32:49.278Z,18.84
2023-05-01T18:35:20.412Z,18.78
2023-05-01T18:37:49.266Z,18.79
2023-05-01T18:40:17.033Z,18.58
2023-05-01T18:42:44.812Z,18.34
2023-05-01T18:45:12.900Z,18.21
2023-05-01T18:47:43.066Z,17.91
2023-05-01T18:50:12.489Z,17.64
2023-05-01T18:52:42.828Z,17.35
2023-05-01T18:55:12.623Z,17.31
2023-05-01T18:57:44.213Z,17.18
2023-05-01T19:00:16.093Z,17.04
2023-05-01T19:02:47.194Z,17.01
2023-05-01T19:05:15.791Z,16.94
2023-05-01T19:07:43.915Z,16.86
2023-05-01T19:10:12.854Z,16.77
2023-05-01T19:12:43.081Z,16.79
2023-05-01T19:15:11.652Z,16.81
2023-05-01T19:17:40.429Z,16.80
2023-05-01T19:20:09.316Z,16.82
2023-05-01T19:22:37.255Z,16.86
2023-05-01T19:25:11.388Z,16.88
2023-05-01T19:27:42.772Z,16.84
2023-05-01T19:30:17.500Z,16.83
2023-05-01T19:32:48.640Z,16.80
2023-05-01T19:35:17.337Z,16.83
2023-05-01T19:37:48.162Z,16.83
2023-05-01T19:40:17.884Z,16.87
2023-05-01T19:42:46.300Z,16.88
2023-05-01T19:45:17.044Z,16.91
2023-05-01T19:47:46.276Z,16.85
2023-05-01T19:50:14.113Z,16.82
2023-05-01T19:52:42.312Z,16.83
2023-05-01T19:55:11.423Z,16.83
2023-05-01T19:57:39.838Z,16.82
2023-05-01T20:00:09.342Z,16.72
2023-05-01T20:02:37.925Z,16.71
2023-05-01T20:05:08.811Z,16.75
2023-05-01T20:07:36.094Z,16.72
2023-05-01T20:10:03.610Z,16.70
2023-05-01T20:12:32.890Z,16.64
2023-05-01T20:15:01.730Z,16.58
2023-05-01T20:17:30.231Z,16.48
2023-05-01T20:19:57.590Z,16.42
2023-05-01T20:22:25.775Z,16.39
2023-05-01T20:24:53.121Z,16.36
2023-05-01T20:27:20.714Z,16.44
2023-05-01T20:29:55.556Z,16.39
2023-05-01T20:32:23.189Z,16.40
2023-05-01T20:34:51.031Z,16.44
2023-05-01T20:37:20.337Z,16.40
2023-05-01T20:39:48.943Z,16.31
2023-05-01T20:42:16.513Z,16.24
2023-05-01T20:44:44.848Z,16.22
2023-05-01T20:47:12.356Z,16.19
2023-05-01T20:49:40.524Z,16.14
2023-05-01T20:52:07.676Z,16.05
2023-05-01T20:54:35.172Z,16.08
2023-05-01T20:57:04.280Z,16.05
2023-05-01T20:59:31.523Z,15.91
2023-05-01T21:01:59.156Z,15.92
2023-05-01T21:04:26.428Z,15.89
2023-05-01T21:06:54.156Z,15.78
2023-05-01T21:09:22.389Z,15.70
2023-05-01T21:11:49.907Z,15.69
2023-05-01T21:14:17.322Z,15.71
2023-05-01T21:16:44.785Z,15.63
2023-05-01T21:19:13.511Z,15.60
2023-05-01T21:21:42.929Z,15.59
2023-05-01T21:24:26.501Z,15.52
2023-05-01T21:26:58.059Z,15.37
2023-05-01T21:29:25.640Z,15.39
2023-05-01T21:31:53.203Z,15.28
2023-05-01T21:34:20.549Z,15.27
2023-05-01T21:36:49.577Z,15.32
2023-05-01T21:39:16.991Z,15.18
2023-05-01T21:41:44.565Z,15.03
2023-05-01T21:44:12.719Z,15.08
2023-05-01T21:46:40.203Z,14.94
2023-05-01T21:49:07.861Z,14.90
2023-05-01T21:51:35.349Z,14.69
2023-05-01T21:54:05.108Z,14.56
2023-05-01T21:56:32.410Z,14.43
2023-05-01T21:59:02.691Z,14.41
2023-05-01T22:01:32.039Z,14.36
2023-05-01T22:03:59.264Z,14.21
2023-05-01T22:06:27.082Z,14.22
2023-05-01T22:08:54.672Z,14.11
2023-05-01T22:11:24.784Z,14.02
2023-05-01T22:13:52.190Z,13.94
2023-05-01T22:16:19.681Z,13.98
2023-05-01T22:18:49.370Z,13.97
2023-05-01T22:21:18.188Z,13.90
2023-05-01T22:23:45.891Z,13.76
2023-05-01T22:26:20.183Z,13.80
2023-05-01T22:28:47.857Z,13.78
2023-05-01T22:31:23.460Z,13.72
2023-05-01T22:33:58.914Z,13.63
2023-05-01T22:36:26.424Z,13.58
2023-05-01T22:38:54.068Z,13.57
2023-05-01T22:41:21.263Z,13.51
2023-05-01T22:43:48.797Z,13.48
2023-05-01T22:46:17.613Z,13.45
2023-05-01T22:48:45.873Z,13.39
2023-05-01T22:51:13.226Z,13.34
2023-05-01T22:53:41.741Z,13.29
2023-05-01T22:56:09.260Z,13.26
2023-05-01T22:58:38.862Z,13.22
2023-05-01T23:01:06.283Z,13.21
2023-05-01T23:03:35.800Z,13.20
2023-05-01T23:06:06.746Z,13.16
2023-05-01T23:08:36.331Z,13.09
2023-05-01T23:11:04.758Z,13.09
2023-05-01T23:13:32.616Z,13.09
2023-05-01T23:16:00.197Z,13.10
2023-05-01T23:18:40.037Z,13.01
2023-05-01T23:21:17.960Z,13.03
2023-05-01T23:23:47.166Z,13.00
2023-05-01T23:26:29.378Z,12.95
2023-05-01T23:28:56.784Z,12.95
2023-05-01T23:31:29.581Z,12.97
2023-05-01T23:34:02.825Z,12.94
2023-05-01T23:36:31.475Z,12.86
2023-05-01T23:39:00.908Z,12.84
2023-05-01T23:41:28.823Z,12.85
2023-05-01T23:43:56.541Z,12.84
2023-05-01T23:46:23.828Z,12.81
2023-05-01T23:48:51.737Z,12.82
2023-05-01T23:51:19.109Z,12.74
2023-05-01T23:53:47.030Z,12.79
2023-05-01T23:56:14.595Z,12.83
2023-05-01T23:58:42.183Z,12.66
